Disclaimer

Please do not use the information listed here in-flight or in-navigation, as they are not provided to us by the airports but are provided by volunteers, so they might be outdated.

Search


Regions


Airport information page

Radio informations:
Tower (TWR) - 122.6 MHz
Approach (APP) - 122.6 MHz

Airport informations:
Latitude: 57° 32' 33.00" N
Longitude: 004° 02' 51.00" W
Elevation: 31 feet - 9 meters
Operating hours: Remarks
Operating agency: Civil government, landing fees and diplomatic clearance may be required
Timezone: UTC 0(+1DT) - Last Sunday in March to last Sunday in October
Fuel: Jet A1, without icing nhibitor.

100/130 MIL Spec, low lead, aviation gasoline (BLUE)

Runway information:
05/23 - 6191 x 151 feet< - >1887 x 46 meters
12/30 - 2297 x 59 feet< - >700 x 18 meters

Recent METARs:
EGPE 160650Z VRB01KT CAVOK 03/02 Q1021
EGPE 160720Z 00000KT CAVOK 04/01 Q1021
EGPE 160750Z 09003KT CAVOK 05/02 Q1022

Airport on the map: